| Date Time MST |
Temp °F |
RH % |
DewPt °F |
Wind mph |
Dir ° |
Gust mph |
Dir ° |
Press in Hg |
Solar W/m^2 |
Prec in |
|---|---|---|---|---|---|---|---|---|---|---|
| 2026-05-07 00:40 | 29.7 | 93.0 | 28.0 | 2.6 | 5 | 4.5 | 351 | 24.848 | 0.1 | 0.00 |
| 2026-05-07 00:35 | 29.3 | 92.6 | 27.4 | 3.1 | 233 | 6.4 | 324 | 24.850 | 0.0 | 0.00 |
| 2026-05-07 00:30 | 29.6 | 91.4 | 27.4 | 3.3 | 24 | 5.5 | 255 | 24.851 | 0.1 | 0.00 |
| 2026-05-07 00:25 | 29.8 | 91.7 | 27.7 | 4.9 | 326 | 6.6 | 352 | 24.850 | 0.1 | 0.00 |
| 2026-05-07 00:20 | 30.1 | 90.4 | 27.7 | 5.2 | 342 | 7.0 | 348 | 24.850 | 0.0 | 0.00 |
| 2026-05-07 00:15 | 30.5 | 90.6 | 28.1 | 5.3 | 356 | 6.8 | 335 | 24.853 | 0.0 | 0.00 |
| 2026-05-07 00:10 | 30.3 | 92.6 | 28.4 | 3.6 | 317 | 4.7 | 303 | 24.855 | 0.0 | 0.00 |
| 2026-05-07 00:05 | 30.1 | 91.9 | 28.1 | 4.0 | 329 | 5.9 | 270 | 24.858 | 0.1 | 0.00 |
| 2026-05-07 00:00 | 30.5 | 92.6 | 28.6 | 4.1 | 272 | 5.7 | 288 | 24.862 | 0.0 | 0.00 |
| 2026-05-06 23:55 | 30.2 | 93.2 | 28.5 | 4.5 | 311 | 5.7 | 299 | 24.866 | 0.0 | 0.00 |
| 2026-05-06 23:50 | 29.4 | 93.1 | 27.7 | 4.0 | 319 | 5.4 | 307 | 24.866 | 0.1 | 0.00 |
| 2026-05-06 23:45 | 29.7 | 92.5 | 27.8 | 2.3 | 321 | 4.0 | 322 | 24.866 | 0.1 | 0.00 |
| 2026-05-06 23:40 | 29.9 | 92.3 | 28.0 | 2.8 | 338 | 3.9 | 331 | 24.866 | 0.1 | 0.00 |
| 2026-05-06 23:35 | 30.3 | 92.3 | 28.3 | 2.7 | 285 | 5.0 | 291 | 24.866 | 0.2 | 0.00 |
| 2026-05-06 23:30 | 30.3 | 93.1 | 28.5 | 3.6 | 354 | 5.1 | 5 | 24.866 | 0.2 | 0.00 |
| 2026-05-06 23:25 | 29.8 | 93.1 | 28.1 | 3.5 | 352 | 4.5 | 25 | 24.859 | 0.2 | 0.00 |
| 2026-05-06 23:20 | 29.4 | 93.4 | 27.8 | 4.2 | 19 | 5.0 | 357 | 24.854 | 0.2 | 0.00 |
| 2026-05-06 23:15 | 29.5 | 91.9 | 27.4 | 3.0 | 35 | 4.3 | 38 | 24.853 | 0.2 | 0.00 |
| 2026-05-06 23:10 | 30.7 | 89.4 | 28.0 | 3.0 | 42 | 3.9 | 353 | 24.844 | 0.2 | 0.00 |
| 2026-05-06 23:05 | 31.2 | 92.7 | 29.4 | 2.6 | 19 | 4.0 | 319 | 24.857 | 0.2 | 0.00 |
| 2026-05-06 23:00 | 30.8 | 92.8 | 29.0 | 1.3 | 295 | 2.5 | 239 | 24.863 | 0.2 | 0.00 |
| 2026-05-06 22:55 | 31.1 | 91.7 | 29.0 | 1.1 | 239 | 3.6 | 246 | 24.868 | 0.2 | 0.00 |
| 2026-05-06 22:50 | 31.1 | 92.5 | 29.2 | 0.9 | 186 | 1.8 | 339 | 24.864 | 0.2 | 0.00 |
| 2026-05-06 22:45 | 30.9 | 92.2 | 28.9 | 1.0 | 90 | 2.5 | 10 | 24.858 | 0.2 | 0.00 |
| 2026-05-06 22:40 | 30.9 | 91.4 | 28.7 | 2.4 | 312 | 4.7 | 49 | 24.861 | 0.2 | 0.00 |
| 2026-05-06 22:35 | 30.9 | 91.8 | 28.8 | 2.0 | 50 | 5.0 | 53 | 24.852 | 0.2 | 0.00 |
| 2026-05-06 22:30 | 30.9 | 91.5 | 28.7 | 1.5 | 97 | 2.7 | 323 | 24.866 | 0.2 | 0.00 |
| 2026-05-06 22:25 | 30.7 | 91.4 | 28.5 | 2.4 | 333 | 3.9 | 357 | 24.862 | 0.2 | 0.00 |
| 2026-05-06 22:20 | 30.9 | 90.6 | 28.5 | 3.5 | 323 | 5.5 | 338 | 24.869 | 0.2 | 0.00 |
| 2026-05-06 22:15 | 30.8 | 91.8 | 28.7 | 4.3 | 334 | 5.6 | 329 | 24.859 | 0.2 | 0.00 |
| Date Time MST |
Temp °C |
RH % |
DewPt °C |
Wind m/s |
Dir ° |
Gust m/s |
Dir ° |
Press hPa |
Solar W/m^2 |
Prec mm |
|---|---|---|---|---|---|---|---|---|---|---|
| 2026-05-07 00:40 | -1.3 | 93.0 | -2.2 | 1.1 | 5 | 2.0 | 351 | 841.47 | 0.1 | 0.00 |
| 2026-05-07 00:35 | -1.5 | 92.6 | -2.5 | 1.4 | 233 | 2.9 | 324 | 841.50 | 0.0 | 0.00 |
| 2026-05-07 00:30 | -1.3 | 91.4 | -2.6 | 1.5 | 24 | 2.5 | 255 | 841.56 | 0.1 | 0.00 |
| 2026-05-07 00:25 | -1.2 | 91.7 | -2.4 | 2.2 | 326 | 3.0 | 352 | 841.52 | 0.1 | 0.00 |
| 2026-05-07 00:20 | -1.0 | 90.4 | -2.4 | 2.3 | 342 | 3.1 | 348 | 841.51 | 0.0 | 0.00 |
| 2026-05-07 00:15 | -0.8 | 90.6 | -2.2 | 2.4 | 356 | 3.1 | 335 | 841.62 | 0.0 | 0.00 |
| 2026-05-07 00:10 | -1.0 | 92.6 | -2.0 | 1.6 | 317 | 2.1 | 303 | 841.68 | 0.0 | 0.00 |
| 2026-05-07 00:05 | -1.0 | 91.9 | -2.2 | 1.8 | 329 | 2.6 | 270 | 841.79 | 0.1 | 0.00 |
| 2026-05-07 00:00 | -0.8 | 92.6 | -1.9 | 1.8 | 272 | 2.5 | 288 | 841.91 | 0.0 | 0.00 |
| 2026-05-06 23:55 | -1.0 | 93.2 | -1.9 | 2.0 | 311 | 2.5 | 299 | 842.05 | 0.0 | 0.00 |
| 2026-05-06 23:50 | -1.4 | 93.1 | -2.4 | 1.8 | 319 | 2.4 | 307 | 842.05 | 0.1 | 0.00 |
| 2026-05-06 23:45 | -1.3 | 92.5 | -2.3 | 1.0 | 321 | 1.8 | 322 | 842.06 | 0.1 | 0.00 |
| 2026-05-06 23:40 | -1.2 | 92.3 | -2.2 | 1.3 | 338 | 1.8 | 331 | 842.07 | 0.1 | 0.00 |
| 2026-05-06 23:35 | -1.0 | 92.3 | -2.0 | 1.2 | 285 | 2.2 | 291 | 842.04 | 0.2 | 0.00 |
| 2026-05-06 23:30 | -1.0 | 93.1 | -1.9 | 1.6 | 354 | 2.3 | 5 | 842.05 | 0.2 | 0.00 |
| 2026-05-06 23:25 | -1.2 | 93.1 | -2.2 | 1.6 | 352 | 2.0 | 25 | 841.82 | 0.2 | 0.00 |
| 2026-05-06 23:20 | -1.4 | 93.4 | -2.4 | 1.9 | 19 | 2.2 | 357 | 841.64 | 0.2 | 0.00 |
| 2026-05-06 23:15 | -1.4 | 91.9 | -2.5 | 1.3 | 35 | 1.9 | 38 | 841.61 | 0.2 | 0.00 |
| 2026-05-06 23:10 | -0.7 | 89.4 | -2.2 | 1.3 | 42 | 1.8 | 353 | 841.32 | 0.2 | 0.00 |
| 2026-05-06 23:05 | -0.4 | 92.7 | -1.5 | 1.2 | 19 | 1.8 | 319 | 841.76 | 0.2 | 0.00 |
| 2026-05-06 23:00 | -0.7 | 92.8 | -1.7 | 0.6 | 295 | 1.1 | 239 | 841.95 | 0.2 | 0.00 |
| 2026-05-06 22:55 | -0.5 | 91.7 | -1.7 | 0.5 | 239 | 1.6 | 246 | 842.12 | 0.2 | 0.00 |
| 2026-05-06 22:50 | -0.5 | 92.5 | -1.5 | 0.4 | 186 | 0.8 | 339 | 841.98 | 0.2 | 0.00 |
| 2026-05-06 22:45 | -0.6 | 92.2 | -1.7 | 0.5 | 90 | 1.1 | 10 | 841.78 | 0.2 | 0.00 |
| 2026-05-06 22:40 | -0.6 | 91.4 | -1.8 | 1.1 | 312 | 2.1 | 49 | 841.88 | 0.2 | 0.00 |
| 2026-05-06 22:35 | -0.6 | 91.8 | -1.8 | 0.9 | 50 | 2.3 | 53 | 841.59 | 0.2 | 0.00 |
| 2026-05-06 22:30 | -0.6 | 91.5 | -1.8 | 0.7 | 97 | 1.2 | 323 | 842.06 | 0.2 | 0.00 |
| 2026-05-06 22:25 | -0.7 | 91.4 | -2.0 | 1.1 | 333 | 1.7 | 357 | 841.93 | 0.2 | 0.00 |
| 2026-05-06 22:20 | -0.6 | 90.6 | -1.9 | 1.6 | 323 | 2.5 | 338 | 842.17 | 0.2 | 0.00 |
| 2026-05-06 22:15 | -0.7 | 91.8 | -1.9 | 1.9 | 334 | 2.5 | 329 | 841.83 | 0.2 | 0.00 |